• Join FlightAware (Why Join?)
  • Login
  • US Flag 
05:05AM EDT


 

Airport Tracker/Info


-or-


 

Live Flight TrackerFlight Track Log ✈ N825TD ✈ 30-Oct-2013 ✈ KAPF - KAPF

Flight Track Log - Related Links

Times and Time Zones

All times are in EDT time to prevent confusion due to time zone crossing. See the N825TD flight status page for this flight to view local times or setup timezone preferences in your user account.

Time Position Orientation Groundspeed Altitude Reporting Facility
EDT Latitude Longitude Course Direction KTS MPH feet Rate Location/Type
02:19PM 26.1524 -81.7756 North  Level Estimated
02:20PM 26.1586 -81.7752 North  Level FlightAware Approximate
02:21PM 26.1647 -81.7747 North  Level FlightAware Approximate
02:22PM 26.1708 -81.7742 North  Level FlightAware Approximate
02:23PM 26.1770 -81.7737 North  Level FlightAware Approximate
02:24PM 26.1831 -81.7732 North  Level FlightAware Approximate
02:25PM 26.1892 -81.7728 North  Level FlightAware Approximate
02:26PM 26.1954 -81.7723 North  Level FlightAware Approximate
02:27PM 26.2015 -81.7718 North  Level FlightAware Approximate
02:28PM 26.1954 -81.7723 North  Level Estimated
02:29PM 26.2015 -81.7722 North  Level FlightAware Approximate
02:30PM 26.2076 -81.7721 North  Level FlightAware Approximate
02:31PM 26.2138 -81.7719 North  Level FlightAware Approximate
02:32PM 26.2199 -81.7718 North  Level FlightAware Approximate
02:33PM 26.2260 -81.7717 North  Level FlightAware Approximate
02:34PM 26.2322 -81.7716 North  Level FlightAware Approximate
02:35PM 26.2383 -81.7715 North  Level FlightAware Approximate
02:36PM 26.2445 -81.7714 North  Level FlightAware Approximate
02:37PM 26.2506 -81.7713 North  Level FlightAware Approximate
02:38PM 26.2568 -81.7712 North  Level FlightAware Approximate
02:39PM 26.2629 -81.7711 North  Level FlightAware Approximate
02:40PM 26.2690 -81.7710 North  Level FlightAware Approximate
02:41PM 26.2752 -81.7709 North  Level FlightAware Approximate
02:42PM 26.2813 -81.7707 North  Level FlightAware Approximate
02:43PM 26.2875 -81.7706 North  Level FlightAware Approximate
02:44PM 26.2936 -81.7705 North  Level FlightAware Approximate
02:45PM 26.2997 -81.7704 North  Level FlightAware Approximate
02:46PM 26.3059 -81.7703 North  Level FlightAware Approximate
02:47PM 26.3120 -81.7702 North  Level FlightAware Approximate
02:48PM 26.3181 -81.7701 North  Level FlightAware Approximate
02:49PM 26.3243 -81.7700 North  Level FlightAware Approximate
02:50PM 26.3304 -81.7699 North  Level FlightAware Approximate
02:51PM 26.3366 -81.7698 North  Level FlightAware Approximate
02:52PM 26.3427 -81.7696 North  Level FlightAware Approximate
02:53PM 26.3489 -81.7695 North  Level FlightAware Approximate
02:54PM 26.3550 -81.7694 North  Level FlightAware Approximate
02:55PM 26.3611 -81.7693 North  Level FlightAware Approximate
02:56PM 26.3673 -81.7692 North  Level FlightAware Approximate
02:57PM 26.3734 -81.7691 North  Level FlightAware Approximate
02:58PM 26.3796 -81.7690 North  Level FlightAware Approximate
02:59PM 26.3857 -81.7689 North  Level FlightAware Approximate
03:00PM 26.3918 -81.7688 North  Level FlightAware Approximate
03:01PM 26.3980 -81.7687 North  Level FlightAware Approximate
03:02PM 26.4041 -81.7686 North  Level FlightAware Approximate
03:03PM 26.4102 -81.7685 North  Level FlightAware Approximate
03:04PM 26.4164 -81.7684 North  Level FlightAware Approximate
03:05PM 26.4225 -81.7683 North  Level FlightAware Approximate
03:06PM 26.4287 -81.7682 North  Level FlightAware Approximate
03:07PM 26.4348 -81.7681 North  Level FlightAware Approximate
03:08PM 26.4287 -81.7682 180° South  Level Estimated
03:09PM 26.4225 -81.7681 179° South  Level FlightAware Approximate
03:10PM 26.4164 -81.7680 179° South  Level FlightAware Approximate
03:11PM 26.4102 -81.7679 179° South  Level FlightAware Approximate
03:12PM 26.4041 -81.7678 179° South  Level FlightAware Approximate
03:13PM 26.3980 -81.7676 179° South  Level FlightAware Approximate
03:14PM 26.3918 -81.7675 179° South  Level FlightAware Approximate
03:15PM 26.3857 -81.7674 179° South  Level FlightAware Approximate
03:16PM 26.3796 -81.7673 179° South  Level FlightAware Approximate
03:17PM 26.3734 -81.7671 179° South  Level FlightAware Approximate
03:18PM 26.3673 -81.7670 179° South  Level FlightAware Approximate
03:19PM 26.3611 -81.7669 179° South  Level FlightAware Approximate
03:20PM 26.3550 -81.7668 179° South  Level FlightAware Approximate
03:21PM 26.3489 -81.7666 179° South  Level FlightAware Approximate
03:22PM 26.3550 -81.7668 359° North  Level FlightAware Approximate
03:23PM 26.3489 -81.7666 179° South  Level FlightAware Approximate
03:24PM 26.3550 -81.7668 359° North  Level FlightAware Approximate
03:25PM 26.3489 -81.7666 179° South  Level FlightAware Approximate
03:26PM 26.3550 -81.7668 359° North  Level FlightAware Approximate
03:27PM 26.3489 -81.7666 179° South  Level FlightAware Approximate
03:28PM 26.3550 -81.7668 359° North  Level FlightAware Approximate
03:29PM 26.3489 -81.7666 179° South  Level FlightAware Approximate
03:30PM 26.3550 -81.7668 359° North  Level FlightAware Approximate
03:31PM 26.3489 -81.7666 179° South  Level FlightAware Approximate
03:32PM 26.3550 -81.7668 359° North  Level FlightAware Approximate
03:33PM 26.3489 -81.7666 179° South  Level FlightAware Approximate
03:34PM 26.3550 -81.7668 359° North  Level FlightAware Approximate
03:35PM 26.3489 -81.7666 179° South  Level FlightAware Approximate
03:36PM 26.3444 -81.7667 180° South  Level FlightAware Approximate
03:37PM 26.3383 -81.7667 180° South  Level FlightAware Approximate
03:38PM 26.3321 -81.7667 180° South  Level FlightAware Approximate
03:39PM 26.3260 -81.7667 180° South  Level FlightAware Approximate
03:40PM 26.3199 -81.7667 180° South  Level FlightAware Approximate
03:41PM 26.3137 -81.7667 180° South  Level FlightAware Approximate
03:42PM 26.3076 -81.7667 180° South  Level FlightAware Approximate
03:43PM 26.3014 -81.7667 180° South  Level FlightAware Approximate
03:44PM 26.2953 -81.7667 180° South  Level FlightAware Approximate
03:45PM 26.2892 -81.7667 180° South  Level FlightAware Approximate
03:46PM 26.2830 -81.7667 180° South  Level FlightAware Approximate
03:47PM 26.2769 -81.7667 180° South  Level FlightAware Approximate
03:48PM 26.2707 -81.7667 180° South  Level FlightAware Approximate
03:49PM 26.2646 -81.7667 180° South  Level FlightAware Approximate
03:50PM 26.2585 -81.7667 180° South  Level FlightAware Approximate
03:51PM 26.2523 -81.7667 180° South  Level FlightAware Approximate
03:52PM 26.2462 -81.7667 180° South  Level FlightAware Approximate
03:53PM 26.2400 -81.7667 180° South  Level FlightAware Approximate
03:54PM 26.2339 -81.7667 180° South  Level FlightAware Approximate
03:55PM 26.2277 -81.7667 180° South  Level FlightAware Approximate
03:56PM 26.2215 -81.7667 180° South  Level FlightAware Approximate
03:57PM 26.2154 -81.7667 180° South  Level FlightAware Approximate
03:58PM 26.2093 -81.7667 180° South  Level FlightAware Approximate
03:59PM 26.2031 -81.7667 180° South  Level FlightAware Approximate
04:00PM 26.1970 -81.7667 180° South  Level FlightAware Approximate
04:01PM 26.1908 -81.7667 180° South  Level FlightAware Approximate
04:02PM 26.1847 -81.7667 180° South  Level FlightAware Approximate
04:03PM 26.1786 -81.7667 180° South  Level FlightAware Approximate
04:04PM 26.1724 -81.7667 180° South  Level FlightAware Approximate
04:05PM 26.1663 -81.7667 180° South  Level FlightAware Approximate
04:06PM 26.1601 -81.7667 180° South  Level FlightAware Approximate
04:07PM 26.1540 -81.7667 180° South  Level FlightAware Approximate
04:08PM 26.1500 -81.7667 180° South  Level FlightAware Approximate
04:09PM 26.1518 -81.7732 180° South  Level Estimated
04:10PM 26.1500 -81.7667 180° South  Level FlightAware Approximate
04:11PM 26.1518 -81.7732 180° South  Level Estimated
04:12PM 26.1500 -81.7667 180° South  Level FlightAware Approximate
04:13PM 26.1518 -81.7732 180° South  Level Estimated
04:14PM 26.1500 -81.7667 180° South  Level FlightAware Approximate
04:15PM 26.1518 -81.7732 180° South  Level Estimated
04:16PM 26.1500 -81.7667 180° South  Level FlightAware Approximate
04:17PM 26.1518 -81.7732 180° South  Level Estimated
04:18PM 26.1500 -81.7667 180° South  Level FlightAware Approximate
04:19PM 26.1518 -81.7732 180° South  Level Estimated
04:20PM 26.1500 -81.7667 180° South  Level FlightAware Approximate
04:21PM 26.1518 -81.7732 180° South  Level Estimated
04:22PM 26.1500 -81.7667 180° South  Level FlightAware Approximate
04:23PM 26.1518 -81.7732 180° South  Level Estimated
04:24PM 26.1500 -81.7667 180° South  Level FlightAware Approximate
04:25PM 26.1518 -81.7732 180° South  Level Estimated
04:26PM 26.1500 -81.7667 180° South  Level FlightAware Approximate
04:27PM 26.1518 -81.7732 180° South  Level Estimated
04:28PM 26.1500 -81.7667 180° South  Level FlightAware Approximate
04:29PM 26.1518 -81.7732 180° South  Level Estimated